createdAt,value
2022-10-14T00:00:54.619Z,3.04
2022-10-14T00:05:04.605Z,3.11
2022-10-14T00:09:08.736Z,3.23
2022-10-14T00:13:10.451Z,3.35
2022-10-14T00:17:12.263Z,3.48
2022-10-14T00:21:14.245Z,3.60
2022-10-14T00:25:16.121Z,3.63
2022-10-14T00:29:19.038Z,3.71
2022-10-14T00:33:21.486Z,3.75
2022-10-14T00:37:23.815Z,3.86
2022-10-14T00:41:31.920Z,3.97
2022-10-14T00:45:34.786Z,4.09
2022-10-14T00:49:40.436Z,4.30
2022-10-14T00:53:43.678Z,4.54
2022-10-14T00:57:45.956Z,4.68
2022-10-14T01:01:47.936Z,4.82
2022-10-14T01:06:22.854Z,4.87
2022-10-14T01:10:43.596Z,4.87
2022-10-14T01:14:51.711Z,4.74
2022-10-14T01:19:13.336Z,4.78
2022-10-14T01:23:40.490Z,4.52
2022-10-14T01:27:48.332Z,4.49
2022-10-14T01:32:02.647Z,4.34
2022-10-14T01:36:11.042Z,4.26
2022-10-14T01:40:17.511Z,4.19
2022-10-14T01:44:23.231Z,4.01
2022-10-14T01:48:31.139Z,3.95
2022-10-14T01:52:38.510Z,3.90
2022-10-14T01:56:43.177Z,3.87
2022-10-14T02:00:47.829Z,3.95
2022-10-14T02:04:49.810Z,4.08
2022-10-14T02:09:07.407Z,4.18
2022-10-14T02:13:28.329Z,4.19
2022-10-14T02:17:42.980Z,4.23
2022-10-14T02:22:00.273Z,4.26
2022-10-14T02:26:03.938Z,4.19
2022-10-14T02:30:07.657Z,4.27
2022-10-14T02:34:12.776Z,4.20
2022-10-14T02:38:15.816Z,4.19
2022-10-14T02:42:17.813Z,4.25
2022-10-14T02:46:21.630Z,4.25
2022-10-14T02:50:23.412Z,4.33
2022-10-14T02:54:26.941Z,4.45
2022-10-14T02:58:28.711Z,4.52
2022-10-14T03:02:31.891Z,4.61
2022-10-14T03:06:34.263Z,4.60
2022-10-14T03:10:36.330Z,4.63
2022-10-14T03:14:38.116Z,4.66
2022-10-14T03:18:42.157Z,4.65
2022-10-14T03:22:54.295Z,4.73
2022-10-14T03:26:57.567Z,4.68
2022-10-14T03:31:00.935Z,4.78
2022-10-14T03:35:17.765Z,4.82
2022-10-14T03:39:22.229Z,4.94
2022-10-14T03:43:26.197Z,4.95
2022-10-14T03:47:32.304Z,4.91
2022-10-14T03:51:35.574Z,4.99
2022-10-14T03:55:47.752Z,5.05
2022-10-14T03:59:49.661Z,5.17
2022-10-14T04:03:52.213Z,5.11
2022-10-14T04:07:54.131Z,5.21
2022-10-14T04:11:59.643Z,5.21
2022-10-14T04:16:20.279Z,5.35
2022-10-14T04:20:37.101Z,5.37
2022-10-14T04:24:39.383Z,5.40
2022-10-14T04:28:42.444Z,5.46
2022-10-14T04:32:52.109Z,5.36
2022-10-14T04:36:54.060Z,5.48
2022-10-14T04:41:12.476Z,5.46
2022-10-14T04:45:20.578Z,5.42
2022-10-14T04:49:28.997Z,5.38
2022-10-14T04:53:48.778Z,5.33
2022-10-14T04:58:04.237Z,5.17
2022-10-14T05:02:13.006Z,5.35
2022-10-14T05:06:28.399Z,5.40
2022-10-14T05:10:31.427Z,5.35
2022-10-14T05:14:35.474Z,5.42
2022-10-14T05:18:51.451Z,5.60
2022-10-14T05:22:53.656Z,5.49
2022-10-14T05:26:55.275Z,5.58
2022-10-14T05:30:57.311Z,5.56
2022-10-14T05:34:59.345Z,5.54
2022-10-14T05:39:08.501Z,5.73
2022-10-14T05:43:11.635Z,5.82
2022-10-14T05:47:17.465Z,5.97
2022-10-14T05:51:22.508Z,6.10
2022-10-14T05:55:29.335Z,6.22
2022-10-14T05:59:34.816Z,6.28
2022-10-14T06:03:36.889Z,6.39
2022-10-14T06:07:38.833Z,6.56
2022-10-14T06:11:40.841Z,6.70
2022-10-14T06:15:42.469Z,6.83
2022-10-14T06:19:44.607Z,6.88
2022-10-14T06:23:46.388Z,6.95
2022-10-14T06:27:48.207Z,7.13
2022-10-14T06:31:49.869Z,7.14
2022-10-14T06:35:51.967Z,7.27
2022-10-14T06:39:53.645Z,7.43
2022-10-14T06:43:55.702Z,7.65
2022-10-14T06:47:57.747Z,7.76
2022-10-14T06:51:59.632Z,7.94
2022-10-14T06:56:06.156Z,8.13
2022-10-14T07:00:08.886Z,8.36
2022-10-14T07:04:11.791Z,8.40
2022-10-14T07:08:15.546Z,8.46
2022-10-14T07:12:17.673Z,8.59
2022-10-14T07:16:19.532Z,8.65
2022-10-14T07:20:21.250Z,8.70
2022-10-14T07:24:24.001Z,8.84
2022-10-14T07:28:26.049Z,8.76
2022-10-14T07:32:28.080Z,9.14
2022-10-14T07:36:30.141Z,9.33
2022-10-14T07:40:32.050Z,9.48
2022-10-14T07:44:33.747Z,9.57
2022-10-14T07:48:52.674Z,9.75
2022-10-14T07:53:01.174Z,9.88
2022-10-14T07:57:04.159Z,9.95
2022-10-14T08:01:06.244Z,10.06
2022-10-14T08:05:32.875Z,10.19
2022-10-14T08:09:30.279Z,10.50
2022-10-14T08:13:33.114Z,10.63
2022-10-14T08:17:34.743Z,10.78
2022-10-14T08:21:36.764Z,11.11
2022-10-14T08:25:40.024Z,11.26
2022-10-14T08:29:41.953Z,11.39
2022-10-14T08:33:43.604Z,11.67
2022-10-14T08:37:45.632Z,11.96
2022-10-14T08:41:53.129Z,12.31
2022-10-14T08:46:04.652Z,12.47
2022-10-14T08:50:17.428Z,12.58
2022-10-14T08:54:29.892Z,12.52
2022-10-14T08:58:34.337Z,12.65
2022-10-14T09:02:45.998Z,12.93
2022-10-14T09:06:50.271Z,12.89
2022-10-14T09:10:52.308Z,12.98
2022-10-14T09:15:18.559Z,13.03
2022-10-14T09:19:37.196Z,12.96
2022-10-14T09:23:39.061Z,13.14
2022-10-14T09:27:41.793Z,13.25
2022-10-14T09:31:43.569Z,13.38
2022-10-14T09:35:45.965Z,13.56
2022-10-14T09:39:49.177Z,13.56
2022-10-14T09:44:21.243Z,13.68
2022-10-14T09:48:49.279Z,13.77
2022-10-14T09:52:55.523Z,14.06
2022-10-14T09:57:04.584Z,14.15
2022-10-14T10:01:12.842Z,14.35
2022-10-14T10:05:27.205Z,14.45
2022-10-14T10:09:29.066Z,14.40
2022-10-14T10:13:33.464Z,14.19
2022-10-14T10:17:40.519Z,14.40
2022-10-14T10:21:42.494Z,14.33
2022-10-14T10:25:44.382Z,14.30
2022-10-14T10:29:46.099Z,14.45
2022-10-14T10:34:03.106Z,14.57
2022-10-14T10:38:30.930Z,14.68
2022-10-14T10:42:45.836Z,14.46
2022-10-14T10:47:12.264Z,14.47
2022-10-14T10:51:34.559Z,14.78
2022-10-14T10:55:53.977Z,14.76
2022-10-14T11:00:01.712Z,14.76
2022-10-14T11:04:25.865Z,14.87
2022-10-14T11:09:01.647Z,14.70
2022-10-14T11:13:35.643Z,14.83
2022-10-14T11:17:45.445Z,15.28
2022-10-14T11:22:23.573Z,15.51
2022-10-14T11:26:46.878Z,15.50
2022-10-14T11:31:12.434Z,15.74
2022-10-14T11:35:59.221Z,15.64
2022-10-14T11:40:03.833Z,15.73
2022-10-14T11:48:51.337Z,15.87
2022-10-14T11:53:18.959Z,16.19
2022-10-14T11:57:56.622Z,16.11
2022-10-14T12:02:12.183Z,16.22
2022-10-14T12:06:22.529Z,16.28
2022-10-14T12:10:30.938Z,16.18
2022-10-14T12:14:36.080Z,15.94
2022-10-14T12:18:38.121Z,16.17
2022-10-14T12:22:39.867Z,16.13
2022-10-14T12:26:56.946Z,16.13
2022-10-14T12:31:23.532Z,16.01
2022-10-14T12:35:45.508Z,16.02
2022-10-14T12:39:47.364Z,16.04
2022-10-14T12:44:00.537Z,15.99
2022-10-14T12:48:15.877Z,15.86
2022-10-14T12:52:22.213Z,15.53
2022-10-14T12:56:44.278Z,15.29
2022-10-14T13:00:55.120Z,15.24
2022-10-14T13:04:56.981Z,15.21
2022-10-14T13:09:17.195Z,15.24
2022-10-14T13:13:41.863Z,15.27
2022-10-14T13:17:47.638Z,14.96
2022-10-14T13:21:52.607Z,14.89
2022-10-14T13:26:13.664Z,14.85
2022-10-14T13:30:32.980Z,14.76
2022-10-14T13:34:51.730Z,14.81
2022-10-14T13:38:57.719Z,14.82
2022-10-14T13:43:08.335Z,14.73
2022-10-14T13:47:14.376Z,14.70
2022-10-14T13:51:31.503Z,14.80
2022-10-14T13:55:51.627Z,14.72
2022-10-14T14:04:31.988Z,15.04
2022-10-14T14:08:40.390Z,15.03
2022-10-14T14:12:44.008Z,14.88
2022-10-14T14:16:58.384Z,14.78
2022-10-14T14:21:00.252Z,14.69
2022-10-14T14:25:38.157Z,14.58
2022-10-14T14:29:48.916Z,14.52
2022-10-14T14:33:51.343Z,14.50
2022-10-14T14:37:56.137Z,14.41
2022-10-14T14:42:00.713Z,14.41
2022-10-14T14:46:02.844Z,14.34
2022-10-14T14:50:28.988Z,14.34
2022-10-14T14:54:28.937Z,14.30
2022-10-14T14:58:38.564Z,14.32
2022-10-14T15:02:49.363Z,14.18
2022-10-14T15:07:18.742Z,14.06
2022-10-14T15:11:23.876Z,13.95
2022-10-14T15:15:27.831Z,13.92
2022-10-14T15:24:24.943Z,13.73
2022-10-14T15:28:31.734Z,13.86
2022-10-14T15:32:34.934Z,13.82
2022-10-14T15:42:30.286Z,13.68
2022-10-14T15:46:52.969Z,13.63
2022-10-14T15:50:54.585Z,13.57
2022-10-14T15:54:57.772Z,13.53
2022-10-14T15:58:59.564Z,13.48
2022-10-14T16:03:03.650Z,13.43
2022-10-14T16:07:06.467Z,13.44
2022-10-14T16:11:19.762Z,13.44
2022-10-14T16:15:32.169Z,13.34
2022-10-14T16:19:34.071Z,13.27
2022-10-14T16:23:40.138Z,13.21
2022-10-14T16:27:42.399Z,13.13
2022-10-14T16:31:49.961Z,13.13
2022-10-14T16:35:54.550Z,13.11
2022-10-14T16:39:56.298Z,12.98
2022-10-14T16:43:58.245Z,13.01
2022-10-14T16:47:59.866Z,12.91
2022-10-14T16:52:01.807Z,12.93
2022-10-14T16:56:24.802Z,12.91
2022-10-14T17:00:26.680Z,12.83
2022-10-14T17:04:28.532Z,12.88
2022-10-14T17:08:33.066Z,12.84
2022-10-14T17:12:34.922Z,12.88
2022-10-14T17:16:36.966Z,12.82
2022-10-14T17:20:38.661Z,12.73
2022-10-14T17:24:40.464Z,12.72
2022-10-14T17:28:45.114Z,12.67
2022-10-14T17:32:47.223Z,12.64
2022-10-14T17:36:49.264Z,12.62
2022-10-14T17:40:51.471Z,12.59
2022-10-14T17:44:54.261Z,12.51
2022-10-14T17:48:59.112Z,12.50
2022-10-14T17:53:00.980Z,12.46
2022-10-14T17:57:02.952Z,12.46
2022-10-14T18:01:11.133Z,12.43
2022-10-14T18:05:13.754Z,12.28
2022-10-14T18:09:15.545Z,12.33
2022-10-14T18:13:17.359Z,12.33
2022-10-14T18:17:19.259Z,12.26
2022-10-14T18:21:21.499Z,12.17
2022-10-14T18:25:23.565Z,12.16
2022-10-14T18:29:25.502Z,12.11
2022-10-14T18:33:27.265Z,12.07
2022-10-14T18:37:29.073Z,12.00
2022-10-14T18:41:31.286Z,11.92
2022-10-14T18:45:34.691Z,11.81
2022-10-14T18:49:39.928Z,11.75
2022-10-14T18:53:44.942Z,11.68
2022-10-14T18:57:46.645Z,11.61
2022-10-14T19:01:52.044Z,11.48
2022-10-14T19:05:58.001Z,11.43
2022-10-14T19:09:59.904Z,11.42
2022-10-14T19:14:05.391Z,11.32
2022-10-14T19:18:07.511Z,11.34
2022-10-14T19:22:10.531Z,11.34
2022-10-14T19:26:21.281Z,11.34
2022-10-14T19:30:22.918Z,11.27
2022-10-14T19:34:27.324Z,11.27
2022-10-14T19:38:29.339Z,11.26
2022-10-14T19:42:31.175Z,11.27
2022-10-14T19:46:33.095Z,11.23
2022-10-14T19:50:35.062Z,11.23
2022-10-14T19:54:36.704Z,11.27
2022-10-14T19:58:43.787Z,11.24
2022-10-14T20:02:49.453Z,11.18
2022-10-14T20:06:51.366Z,11.16
2022-10-14T20:10:53.515Z,11.12
2022-10-14T20:14:56.002Z,11.13
2022-10-14T20:18:57.839Z,11.09
2022-10-14T20:22:59.713Z,11.05
2022-10-14T20:27:01.753Z,11.14
2022-10-14T20:31:07.032Z,11.14
2022-10-14T20:35:14.138Z,11.05
2022-10-14T20:39:16.851Z,11.01
2022-10-14T20:43:18.631Z,11.00
2022-10-14T20:47:20.999Z,10.93
2022-10-14T20:51:23.350Z,10.91
2022-10-14T20:55:25.524Z,10.81
2022-10-14T20:59:27.418Z,10.77
2022-10-14T21:03:29.777Z,10.76
2022-10-14T21:07:31.455Z,10.62
2022-10-14T21:11:33.521Z,10.59
2022-10-14T21:15:35.195Z,10.49
2022-10-14T21:19:37.169Z,10.40
2022-10-14T21:23:39.126Z,10.28
2022-10-14T21:27:40.995Z,10.19
2022-10-14T21:31:43.149Z,10.15
2022-10-14T21:35:45.187Z,10.07
2022-10-14T21:39:46.933Z,9.97
2022-10-14T21:43:48.974Z,9.88
2022-10-14T21:47:52.852Z,9.87
2022-10-14T21:51:54.756Z,9.86
2022-10-14T21:55:56.453Z,9.78
2022-10-14T21:59:58.420Z,9.78
2022-10-14T22:04:05.597Z,9.82
2022-10-14T22:08:07.457Z,9.79
2022-10-14T22:12:09.511Z,9.70
2022-10-14T22:16:13.523Z,9.70
2022-10-14T22:20:15.533Z,9.59
2022-10-14T22:24:17.662Z,9.50
2022-10-14T22:28:19.386Z,9.41
2022-10-14T22:32:21.378Z,9.33
2022-10-14T22:36:28.249Z,9.25
2022-10-14T22:40:30.148Z,9.18
2022-10-14T22:44:31.779Z,9.19
2022-10-14T22:48:35.260Z,9.13
2022-10-14T22:52:37.371Z,9.02
2022-10-14T22:56:39.520Z,9.04
2022-10-14T23:00:41.237Z,9.10
2022-10-14T23:04:43.082Z,9.07
2022-10-14T23:08:45.342Z,8.97
2022-10-14T23:12:47.564Z,8.84
2022-10-14T23:16:49.263Z,8.84
2022-10-14T23:20:51.194Z,8.77
2022-10-14T23:24:52.960Z,8.71
2022-10-14T23:28:57.666Z,8.65
2022-10-14T23:32:59.531Z,8.60
2022-10-14T23:37:01.681Z,8.52
2022-10-14T23:41:04.744Z,8.42
2022-10-14T23:45:07.278Z,8.33
2022-10-14T23:49:25.117Z,8.23
2022-10-14T23:53:28.444Z,8.09
2022-10-14T23:57:30.096Z,8.06
